sensor_id;sensor_type;location;lat;lon;timestamp;pressure;altitude;pressure_sealevel;temperature;humidity
80164;BME280;70071;55.130;61.268;2023-08-20T00:01:02;98766.88;;;22.38;39.64
80164;BME280;70071;55.130;61.268;2023-08-20T00:03:29;98777.44;;;22.39;39.73
80164;BME280;70071;55.130;61.268;2023-08-20T00:05:55;98758.19;;;22.30;39.71
80164;BME280;70071;55.130;61.268;2023-08-20T00:08:21;98754.69;;;22.25;39.72
80164;BME280;70071;55.130;61.268;2023-08-20T00:10:47;98753.84;;;22.14;39.90
80164;BME280;70071;55.130;61.268;2023-08-20T00:13:13;98751.66;;;22.11;39.98
80164;BME280;70071;55.130;61.268;2023-08-20T00:15:39;98767.34;;;22.14;40.20
80164;BME280;70071;55.130;61.268;2023-08-20T00:18:06;98766.00;;;22.16;40.12
80164;BME280;70071;55.130;61.268;2023-08-20T00:20:32;98783.56;;;22.19;39.87
80164;BME280;70071;55.130;61.268;2023-08-20T00:22:59;98764.34;;;22.10;40.45
80164;BME280;70071;55.130;61.268;2023-08-20T00:25:26;98783.84;;;22.17;40.49
80164;BME280;70071;55.130;61.268;2023-08-20T00:27:52;98785.16;;;22.15;40.24
80164;BME280;70071;55.130;61.268;2023-08-20T00:30:18;98765.16;;;22.00;40.33
80164;BME280;70071;55.130;61.268;2023-08-20T00:32:44;98764.03;;;21.96;40.44
80164;BME280;70071;55.130;61.268;2023-08-20T00:35:09;98787.59;;;22.06;40.18
80164;BME280;70071;55.130;61.268;2023-08-20T00:37:35;98788.94;;;22.04;40.33
80164;BME280;70071;55.130;61.268;2023-08-20T00:40:02;98781.09;;;22.02;40.38
80164;BME280;70071;55.130;61.268;2023-08-20T00:42:30;98765.63;;;21.87;40.43
80164;BME280;70071;55.130;61.268;2023-08-20T00:44:56;98781.88;;;21.97;40.36
80164;BME280;70071;55.130;61.268;2023-08-20T00:47:22;98764.25;;;21.85;40.85
80164;BME280;70071;55.130;61.268;2023-08-20T00:49:48;98783.47;;;21.88;40.67
80164;BME280;70071;55.130;61.268;2023-08-20T00:52:18;98774.25;;;21.84;40.77
80164;BME280;70071;55.130;61.268;2023-08-20T00:54:45;98790.19;;;21.86;40.65
80164;BME280;70071;55.130;61.268;2023-08-20T00:57:14;98769.84;;;21.68;40.95
80164;BME280;70071;55.130;61.268;2023-08-20T00:59:41;98792.06;;;21.80;40.84
80164;BME280;70071;55.130;61.268;2023-08-20T01:02:07;98770.13;;;21.66;41.04
80164;BME280;70071;55.130;61.268;2023-08-20T01:04:34;98795.81;;;21.74;41.08
80164;BME280;70071;55.130;61.268;2023-08-20T01:07:17;98790.16;;;21.75;41.06
80164;BME280;70071;55.130;61.268;2023-08-20T01:11:01;98782.28;;;21.69;41.64
80164;BME280;70071;55.130;61.268;2023-08-20T01:12:54;98801.75;;;21.71;41.23
80164;BME280;70071;55.130;61.268;2023-08-20T01:15:20;98800.34;;;21.63;41.40
80164;BME280;70071;55.130;61.268;2023-08-20T01:17:48;98806.56;;;21.63;41.61
80164;BME280;70071;55.130;61.268;2023-08-20T01:20:14;98806.28;;;21.60;41.75
80164;BME280;70071;55.130;61.268;2023-08-20T01:28:37;98800.59;;;21.56;42.03
80164;BME280;70071;55.130;61.268;2023-08-20T01:31:05;98810.38;;;21.68;42.25
80164;BME280;70071;55.130;61.268;2023-08-20T01:33:31;98800.38;;;21.68;42.01
80164;BME280;70071;55.130;61.268;2023-08-20T01:35:57;98781.72;;;21.61;41.69
80164;BME280;70071;55.130;61.268;2023-08-20T01:38:23;98785.53;;;21.65;41.56
80164;BME280;70071;55.130;61.268;2023-08-20T01:40:49;98785.00;;;21.69;41.62
80164;BME280;70071;55.130;61.268;2023-08-20T01:43:15;98792.09;;;21.85;41.66
80164;BME280;70071;55.130;61.268;2023-08-20T01:45:41;98798.31;;;21.86;41.37
80164;BME280;70071;55.130;61.268;2023-08-20T01:48:08;98803.44;;;21.87;41.28
80164;BME280;70071;55.130;61.268;2023-08-20T01:50:35;98814.03;;;22.04;41.18
80164;BME280;70071;55.130;61.268;2023-08-20T01:53:02;98809.47;;;22.05;40.88
80164;BME280;70071;55.130;61.268;2023-08-20T01:55:28;98810.81;;;22.07;40.91
80164;BME280;70071;55.130;61.268;2023-08-20T01:57:54;98805.97;;;22.09;40.83
80164;BME280;70071;55.130;61.268;2023-08-20T02:00:20;98774.31;;;21.99;40.77
80164;BME280;70071;55.130;61.268;2023-08-20T02:02:46;98796.53;;;22.17;40.77
80164;BME280;70071;55.130;61.268;2023-08-20T02:05:12;98803.03;;;22.21;40.59
80164;BME280;70071;55.130;61.268;2023-08-20T02:07:38;98802.50;;;22.24;40.03
80164;BME280;70071;55.130;61.268;2023-08-20T02:10:33;98799.31;;;22.32;39.41
80164;BME280;70071;55.130;61.268;2023-08-20T02:17:31;98815.03;;;22.56;39.79
80164;BME280;70071;55.130;61.268;2023-08-20T02:24:38;98802.09;;;22.58;39.80
80164;BME280;70071;55.130;61.268;2023-08-20T02:30:46;98804.50;;;22.54;39.56
80164;BME280;70071;55.130;61.268;2023-08-20T02:33:12;98787.97;;;22.41;39.39
80164;BME280;70071;55.130;61.268;2023-08-20T02:35:39;98803.13;;;22.42;38.60
80164;BME280;70071;55.130;61.268;2023-08-20T02:38:06;98804.75;;;22.43;39.17
80164;BME280;70071;55.130;61.268;2023-08-20T02:40:31;98816.69;;;22.67;38.54
80164;BME280;70071;55.130;61.268;2023-08-20T02:42:57;98814.22;;;22.45;38.76
80164;BME280;70071;55.130;61.268;2023-08-20T02:45:24;98792.84;;;22.33;39.23
80164;BME280;70071;55.130;61.268;2023-08-20T02:47:49;98806.63;;;22.37;39.07
80164;BME280;70071;55.130;61.268;2023-08-20T02:50:15;98803.34;;;22.30;38.91
80164;BME280;70071;55.130;61.268;2023-08-20T02:52:42;98813.16;;;22.57;38.49
80164;BME280;70071;55.130;61.268;2023-08-20T02:55:08;98823.97;;;22.46;38.84
80164;BME280;70071;55.130;61.268;2023-08-20T02:57:34;98816.34;;;22.33;39.09
80164;BME280;70071;55.130;61.268;2023-08-20T03:00:00;98828.78;;;22.39;39.36
80164;BME280;70071;55.130;61.268;2023-08-20T03:02:26;98807.94;;;22.29;39.04
80164;BME280;70071;55.130;61.268;2023-08-20T03:04:55;98822.84;;;22.42;39.42
80164;BME280;70071;55.130;61.268;2023-08-20T03:07:28;98827.19;;;22.48;39.29
80164;BME280;70071;55.130;61.268;2023-08-20T03:10:06;98819.91;;;22.49;38.97
80164;BME280;70071;55.130;61.268;2023-08-20T03:12:32;98818.28;;;22.43;38.87
80164;BME280;70071;55.130;61.268;2023-08-20T03:14:59;98805.03;;;22.41;39.09
80164;BME280;70071;55.130;61.268;2023-08-20T03:17:25;98798.53;;;22.37;39.15
80164;BME280;70071;55.130;61.268;2023-08-20T03:19:56;98817.22;;;22.54;38.79
80164;BME280;70071;55.130;61.268;2023-08-20T03:22:24;98809.09;;;22.59;39.29
80164;BME280;70071;55.130;61.268;2023-08-20T03:24:51;98813.44;;;22.60;38.95
80164;BME280;70071;55.130;61.268;2023-08-20T03:27:17;98823.44;;;22.65;38.84
80164;BME280;70071;55.130;61.268;2023-08-20T03:29:43;98822.66;;;22.69;39.09
80164;BME280;70071;55.130;61.268;2023-08-20T03:32:10;98829.69;;;22.76;39.15
80164;BME280;70071;55.130;61.268;2023-08-20T03:34:36;98832.41;;;22.70;38.78
80164;BME280;70071;55.130;61.268;2023-08-20T03:37:02;98830.25;;;22.78;38.73
80164;BME280;70071;55.130;61.268;2023-08-20T03:39:28;98785.28;;;22.56;38.72
80164;BME280;70071;55.130;61.268;2023-08-20T03:41:54;98825.63;;;22.83;38.64
80164;BME280;70071;55.130;61.268;2023-08-20T03:44:20;98811.31;;;22.78;38.16
80164;BME280;70071;55.130;61.268;2023-08-20T03:46:46;98824.03;;;22.87;38.40
80164;BME280;70071;55.130;61.268;2023-08-20T03:49:12;98838.13;;;23.10;37.92
80164;BME280;70071;55.130;61.268;2023-08-20T03:51:38;98834.84;;;22.93;38.15
80164;BME280;70071;55.130;61.268;2023-08-20T03:54:04;98827.28;;;22.95;38.50
80164;BME280;70071;55.130;61.268;2023-08-20T03:56:30;98833.50;;;22.95;38.79
80164;BME280;70071;55.130;61.268;2023-08-20T03:58:55;98813.47;;;22.91;38.37
80164;BME280;70071;55.130;61.268;2023-08-20T04:01:21;98824.84;;;22.98;38.59
80164;BME280;70071;55.130;61.268;2023-08-20T04:03:47;98814.81;;;22.94;37.99
80164;BME280;70071;55.130;61.268;2023-08-20T04:06:13;98831.63;;;23.21;37.88
80164;BME280;70071;55.130;61.268;2023-08-20T04:08:40;98809.16;;;23.00;38.03
80164;BME280;70071;55.130;61.268;2023-08-20T04:11:05;98827.59;;;23.29;37.75
80164;BME280;70071;55.130;61.268;2023-08-20T04:13:31;98811.84;;;23.05;37.79
80164;BME280;70071;55.130;61.268;2023-08-20T04:15:57;98816.47;;;23.05;38.10
80164;BME280;70071;55.130;61.268;2023-08-20T04:18:23;98818.91;;;23.06;38.07
80164;BME280;70071;55.130;61.268;2023-08-20T04:20:53;98830.28;;;23.24;38.26
80164;BME280;70071;55.130;61.268;2023-08-20T04:23:19;98822.72;;;23.31;38.73
80164;BME280;70071;55.130;61.268;2023-08-20T04:25:46;98838.09;;;23.51;39.99
80164;BME280;70071;55.130;61.268;2023-08-20T04:28:12;98819.44;;;23.34;38.50
80164;BME280;70071;55.130;61.268;2023-08-20T04:30:41;98832.44;;;23.42;38.58
80164;BME280;70071;55.130;61.268;2023-08-20T04:33:07;98832.44;;;23.58;37.78
80164;BME280;70071;55.130;61.268;2023-08-20T04:35:33;98816.19;;;23.48;38.15
80164;BME280;70071;55.130;61.268;2023-08-20T04:37:59;98825.34;;;23.62;37.88
80164;BME280;70071;55.130;61.268;2023-08-20T04:40:25;98821.31;;;23.59;38.16
80164;BME280;70071;55.130;61.268;2023-08-20T04:42:51;98815.28;;;23.83;38.60
80164;BME280;70071;55.130;61.268;2023-08-20T04:45:17;98822.34;;;23.94;38.31
80164;BME280;70071;55.130;61.268;2023-08-20T04:47:48;98819.28;;;24.11;38.50
80164;BME280;70071;55.130;61.268;2023-08-20T04:50:14;98804.06;;;24.21;38.16
80164;BME280;70071;55.130;61.268;2023-08-20T04:52:40;98811.31;;;24.30;38.10
80164;BME280;70071;55.130;61.268;2023-08-20T04:55:06;98817.19;;;24.48;38.52
80164;BME280;70071;55.130;61.268;2023-08-20T04:57:33;98817.41;;;24.62;37.88
80164;BME280;70071;55.130;61.268;2023-08-20T04:59:59;98801.34;;;24.71;39.32
80164;BME280;70071;55.130;61.268;2023-08-20T05:02:25;98815.19;;;25.04;40.37
80164;BME280;70071;55.130;61.268;2023-08-20T05:04:51;98800.38;;;24.91;39.67
80164;BME280;70071;55.130;61.268;2023-08-20T05:07:17;98819.50;;;25.10;39.51
80164;BME280;70071;55.130;61.268;2023-08-20T05:09:43;98820.75;;;25.23;38.12
80164;BME280;70071;55.130;61.268;2023-08-20T05:12:08;98802.75;;;25.03;37.93
80164;BME280;70071;55.130;61.268;2023-08-20T05:14:34;98801.97;;;24.97;37.50
80164;BME280;70071;55.130;61.268;2023-08-20T05:17:00;98822.84;;;25.36;38.05
80164;BME280;70071;55.130;61.268;2023-08-20T05:19:26;98799.41;;;25.11;37.01
80164;BME280;70071;55.130;61.268;2023-08-20T05:21:52;98813.31;;;25.63;39.56
80164;BME280;70071;55.130;61.268;2023-08-20T05:24:22;98799.09;;;25.47;38.11
80164;BME280;70071;55.130;61.268;2023-08-20T05:27:10;98802.03;;;25.50;38.70
80164;BME280;70071;55.130;61.268;2023-08-20T05:29:37;98811.19;;;25.60;37.52
80164;BME280;70071;55.130;61.268;2023-08-20T05:32:04;98804.94;;;25.59;37.20
80164;BME280;70071;55.130;61.268;2023-08-20T05:34:30;98789.22;;;25.56;37.05
80164;BME280;70071;55.130;61.268;2023-08-20T05:36:56;98814.00;;;25.98;38.50
80164;BME280;70071;55.130;61.268;2023-08-20T05:39:21;98802.34;;;25.73;36.84
80164;BME280;70071;55.130;61.268;2023-08-20T05:41:49;98802.59;;;25.77;36.87
80164;BME280;70071;55.130;61.268;2023-08-20T05:44:14;98822.72;;;25.76;35.23
80164;BME280;70071;55.130;61.268;2023-08-20T05:46:40;98814.78;;;26.03;36.85
80164;BME280;70071;55.130;61.268;2023-08-20T05:49:06;98803.22;;;25.93;36.42
80164;BME280;70071;55.130;61.268;2023-08-20T05:51:32;98810.31;;;25.88;35.56
80164;BME280;70071;55.130;61.268;2023-08-20T05:53:58;98814.16;;;26.12;35.58
80164;BME280;70071;55.130;61.268;2023-08-20T05:56:23;98800.19;;;25.94;35.54
80164;BME280;70071;55.130;61.268;2023-08-20T05:58:49;98792.41;;;25.87;34.77
80164;BME280;70071;55.130;61.268;2023-08-20T06:01:15;98807.56;;;26.37;36.24
80164;BME280;70071;55.130;61.268;2023-08-20T06:03:41;98804.59;;;26.14;35.66
80164;BME280;70071;55.130;61.268;2023-08-20T06:06:07;98806.53;;;26.33;35.63
80164;BME280;70071;55.130;61.268;2023-08-20T06:08:32;98784.38;;;26.20;34.77
80164;BME280;70071;55.130;61.268;2023-08-20T06:10:58;98795.50;;;26.43;34.00
80164;BME280;70071;55.130;61.268;2023-08-20T06:13:24;98783.47;;;26.30;35.43
80164;BME280;70071;55.130;61.268;2023-08-20T06:15:50;98789.94;;;26.53;35.71
80164;BME280;70071;55.130;61.268;2023-08-20T06:18:15;98791.66;;;26.68;33.90
80164;BME280;70071;55.130;61.268;2023-08-20T06:20:41;98799.03;;;26.63;35.32
80164;BME280;70071;55.130;61.268;2023-08-20T06:23:07;98798.31;;;26.76;35.44
80164;BME280;70071;55.130;61.268;2023-08-20T06:25:32;98778.19;;;26.39;33.31
80164;BME280;70071;55.130;61.268;2023-08-20T06:27:58;98776.41;;;26.48;33.43
80164;BME280;70071;55.130;61.268;2023-08-20T06:30:26;98754.69;;;26.43;32.72
80164;BME280;70071;55.130;61.268;2023-08-20T06:32:52;98774.31;;;26.78;33.57
80164;BME280;70071;55.130;61.268;2023-08-20T06:35:17;98790.19;;;27.09;34.12
80164;BME280;70071;55.130;61.268;2023-08-20T06:37:43;98775.56;;;26.86;33.13
80164;BME280;70071;55.130;61.268;2023-08-20T06:40:09;98797.06;;;27.20;34.95
80164;BME280;70071;55.130;61.268;2023-08-20T06:42:35;98786.00;;;26.98;33.30
80164;BME280;70071;55.130;61.268;2023-08-20T06:45:00;98798.94;;;27.39;35.15
80164;BME280;70071;55.130;61.268;2023-08-20T06:47:26;98789.19;;;27.19;32.79
80164;BME280;70071;55.130;61.268;2023-08-20T06:49:52;98790.09;;;27.47;33.98
80164;BME280;70071;55.130;61.268;2023-08-20T06:52:17;98782.84;;;27.23;32.51
80164;BME280;70071;55.130;61.268;2023-08-20T06:54:44;98802.78;;;27.38;31.80
80164;BME280;70071;55.130;61.268;2023-08-20T06:57:10;98801.47;;;27.35;32.12
80164;BME280;70071;55.130;61.268;2023-08-20T06:59:36;98789.66;;;27.40;31.01
80164;BME280;70071;55.130;61.268;2023-08-20T07:02:02;98783.81;;;27.46;31.44
80164;BME280;70071;55.130;61.268;2023-08-20T07:04:29;98763.13;;;27.45;31.61
80164;BME280;70071;55.130;61.268;2023-08-20T07:06:55;98773.00;;;27.55;30.59
80164;BME280;70071;55.130;61.268;2023-08-20T07:09:20;98788.75;;;27.86;31.48
80164;BME280;70071;55.130;61.268;2023-08-20T07:11:46;98779.47;;;27.73;31.04
80164;BME280;70071;55.130;61.268;2023-08-20T07:14:12;98795.75;;;28.06;31.87
80164;BME280;70071;55.130;61.268;2023-08-20T07:16:38;98780.69;;;27.81;29.79
80164;BME280;70071;55.130;61.268;2023-08-20T07:19:03;98789.06;;;27.84;29.97
80164;BME280;70071;55.130;61.268;2023-08-20T07:21:29;98799.38;;;28.15;30.94
80164;BME280;70071;55.130;61.268;2023-08-20T07:23:55;98758.06;;;27.94;30.17
80164;BME280;70071;55.130;61.268;2023-08-20T07:26:21;98762.63;;;27.85;30.23
80164;BME280;70071;55.130;61.268;2023-08-20T07:28:47;98773.22;;;28.00;30.21
80164;BME280;70071;55.130;61.268;2023-08-20T07:31:23;98759.06;;;28.12;29.90
80164;BME280;70071;55.130;61.268;2023-08-20T07:33:50;98773.16;;;28.28;29.23
80164;BME280;70071;55.130;61.268;2023-08-20T07:36:17;98751.28;;;28.42;28.60
80164;BME280;70071;55.130;61.268;2023-08-20T07:38:43;98757.69;;;28.38;29.15
80164;BME280;70071;55.130;61.268;2023-08-20T07:41:10;98761.50;;;28.50;29.49
80164;BME280;70071;55.130;61.268;2023-08-20T07:43:40;98755.47;;;28.40;27.93
80164;BME280;70071;55.130;61.268;2023-08-20T07:46:07;98761.28;;;28.61;29.58
80164;BME280;70071;55.130;61.268;2023-08-20T07:48:34;98762.25;;;28.65;28.58
80164;BME280;70071;55.130;61.268;2023-08-20T07:51:00;98763.59;;;28.53;27.58
80164;BME280;70071;55.130;61.268;2023-08-20T07:53:26;98761.19;;;28.52;28.45
80164;BME280;70071;55.130;61.268;2023-08-20T07:55:52;98772.25;;;28.69;27.96
80164;BME280;70071;55.130;61.268;2023-08-20T07:58:18;98744.91;;;28.47;28.70
80164;BME280;70071;55.130;61.268;2023-08-20T08:00:44;98768.94;;;28.59;27.81
80164;BME280;70071;55.130;61.268;2023-08-20T08:03:10;98770.38;;;28.79;28.15
80164;BME280;70071;55.130;61.268;2023-08-20T08:05:36;98756.81;;;28.65;28.21
80164;BME280;70071;55.130;61.268;2023-08-20T08:08:02;98758.59;;;28.69;28.34
80164;BME280;70071;55.130;61.268;2023-08-20T08:10:29;98749.63;;;28.69;28.20
80164;BME280;70071;55.130;61.268;2023-08-20T08:12:55;98770.38;;;28.79;28.72
80164;BME280;70071;55.130;61.268;2023-08-20T08:15:22;98770.28;;;28.84;28.40
80164;BME280;70071;55.130;61.268;2023-08-20T08:17:47;98755.63;;;28.80;28.35
80164;BME280;70071;55.130;61.268;2023-08-20T08:20:13;98743.84;;;28.70;28.58
80164;BME280;70071;55.130;61.268;2023-08-20T08:22:39;98741.13;;;28.70;28.31
80164;BME280;70071;55.130;61.268;2023-08-20T08:25:05;98748.59;;;28.87;28.14
80164;BME280;70071;55.130;61.268;2023-08-20T08:27:31;98763.81;;;29.02;28.01
80164;BME280;70071;55.130;61.268;2023-08-20T08:29:57;98753.50;;;29.22;28.67
80164;BME280;70071;55.130;61.268;2023-08-20T08:32:23;98746.41;;;28.98;28.15
80164;BME280;70071;55.130;61.268;2023-08-20T08:34:49;98728.81;;;28.82;28.19
80164;BME280;70071;55.130;61.268;2023-08-20T08:37:15;98744.84;;;29.06;28.48
80164;BME280;70071;55.130;61.268;2023-08-20T08:39:41;98750.63;;;29.04;28.41
80164;BME280;70071;55.130;61.268;2023-08-20T08:42:07;98740.97;;;28.98;28.92
80164;BME280;70071;55.130;61.268;2023-08-20T08:44:37;98734.53;;;28.94;28.38
80164;BME280;70071;55.130;61.268;2023-08-20T08:47:04;98747.28;;;29.07;28.49
80164;BME280;70071;55.130;61.268;2023-08-20T08:49:34;98732.66;;;29.03;27.99
80164;BME280;70071;55.130;61.268;2023-08-20T08:52:00;98719.63;;;29.09;27.85
80164;BME280;70071;55.130;61.268;2023-08-20T08:54:27;98729.03;;;29.17;28.45
80164;BME280;70071;55.130;61.268;2023-08-20T08:56:53;98723.81;;;29.29;28.25
80164;BME280;70071;55.130;61.268;2023-08-20T08:59:19;98709.66;;;29.36;28.02
80164;BME280;70071;55.130;61.268;2023-08-20T09:01:45;98723.88;;;29.55;28.98
80164;BME280;70071;55.130;61.268;2023-08-20T09:04:12;98708.72;;;29.40;28.33
80164;BME280;70071;55.130;61.268;2023-08-20T09:07:03;98712.25;;;29.41;27.78
80164;BME280;70071;55.130;61.268;2023-08-20T09:09:29;98713.75;;;29.47;28.28
80164;BME280;70071;55.130;61.268;2023-08-20T09:11:56;98728.56;;;29.55;28.65
80164;BME280;70071;55.130;61.268;2023-08-20T09:14:24;98728.88;;;29.62;28.12
80164;BME280;70071;55.130;61.268;2023-08-20T09:16:57;98722.38;;;29.81;28.17
80164;BME280;70071;55.130;61.268;2023-08-20T09:19:23;98711.13;;;29.82;28.67
80164;BME280;70071;55.130;61.268;2023-08-20T09:21:49;98711.31;;;29.94;28.01
80164;BME280;70071;55.130;61.268;2023-08-20T09:24:26;98722.09;;;30.00;27.64
80164;BME280;70071;55.130;61.268;2023-08-20T09:26:57;98732.88;;;30.13;27.89
80164;BME280;70071;55.130;61.268;2023-08-20T09:29:24;98714.69;;;30.09;27.94
80164;BME280;70071;55.130;61.268;2023-08-20T09:32:00;98710.34;;;30.08;26.03
80164;BME280;70071;55.130;61.268;2023-08-20T09:34:36;98697.78;;;30.07;27.07
80164;BME280;70071;55.130;61.268;2023-08-20T09:37:03;98695.38;;;30.23;27.28
80164;BME280;70071;55.130;61.268;2023-08-20T09:39:29;98704.56;;;30.27;27.23
80164;BME280;70071;55.130;61.268;2023-08-20T09:41:55;98707.63;;;30.52;27.27
80164;BME280;70071;55.130;61.268;2023-08-20T09:44:23;98706.00;;;30.68;26.88
80164;BME280;70071;55.130;61.268;2023-08-20T09:46:50;98723.22;;;30.77;27.52
80164;BME280;70071;55.130;61.268;2023-08-20T09:49:17;98703.56;;;30.75;26.42
80164;BME280;70071;55.130;61.268;2023-08-20T09:51:46;98701.25;;;30.95;26.30
80164;BME280;70071;55.130;61.268;2023-08-20T09:57:14;98703.97;;;31.12;25.06
80164;BME280;70071;55.130;61.268;2023-08-20T09:59:45;98686.63;;;30.99;26.10
80164;BME280;70071;55.130;61.268;2023-08-20T10:02:13;98696.47;;;31.30;25.76
80164;BME280;70071;55.130;61.268;2023-08-20T10:04:41;98705.63;;;31.43;25.88
80164;BME280;70071;55.130;61.268;2023-08-20T10:07:09;98683.03;;;31.46;25.94
80164;BME280;70071;55.130;61.268;2023-08-20T10:09:36;98692.00;;;31.64;25.81
80164;BME280;70071;55.130;61.268;2023-08-20T10:12:02;98675.38;;;31.52;25.67
80164;BME280;70071;55.130;61.268;2023-08-20T10:14:29;98678.44;;;31.59;25.76
80164;BME280;70071;55.130;61.268;2023-08-20T10:16:54;98665.91;;;31.49;25.30
80164;BME280;70071;55.130;61.268;2023-08-20T10:19:20;98670.13;;;31.77;25.29
80164;BME280;70071;55.130;61.268;2023-08-20T10:21:47;98681.09;;;31.98;24.99
80164;BME280;70071;55.130;61.268;2023-08-20T10:24:18;98669.91;;;32.03;24.93
80164;BME280;70071;55.130;61.268;2023-08-20T10:26:47;98661.47;;;32.08;24.90
80164;BME280;70071;55.130;61.268;2023-08-20T10:29:39;98686.47;;;32.36;25.42
80164;BME280;70071;55.130;61.268;2023-08-20T10:32:12;98683.66;;;32.24;24.56
80164;BME280;70071;55.130;61.268;2023-08-20T10:34:42;98668.53;;;32.18;24.61
80164;BME280;70071;55.130;61.268;2023-08-20T10:37:15;98678.81;;;32.00;23.36
80164;BME280;70071;55.130;61.268;2023-08-20T10:39:41;98667.78;;;31.87;24.33
80164;BME280;70071;55.130;61.268;2023-08-20T10:45:06;98668.56;;;31.67;23.74
80164;BME280;70071;55.130;61.268;2023-08-20T10:47:45;98681.50;;;31.87;24.93
80164;BME280;70071;55.130;61.268;2023-08-20T10:50:18;98658.66;;;31.75;24.04
80164;BME280;70071;55.130;61.268;2023-08-20T10:52:50;98668.16;;;31.77;23.70
80164;BME280;70071;55.130;61.268;2023-08-20T10:55:22;98661.00;;;31.85;23.99
80164;BME280;70071;55.130;61.268;2023-08-20T10:57:55;98671.88;;;32.02;24.26
80164;BME280;70071;55.130;61.268;2023-08-20T11:00:22;98660.41;;;32.00;24.67
80164;BME280;70071;55.130;61.268;2023-08-20T11:02:49;98648.19;;;31.98;24.21
80164;BME280;70071;55.130;61.268;2023-08-20T11:05:21;98638.25;;;32.05;23.96
80164;BME280;70071;55.130;61.268;2023-08-20T11:07:48;98658.75;;;32.29;24.11
80164;BME280;70071;55.130;61.268;2023-08-20T11:10:15;98655.41;;;32.23;23.73
80164;BME280;70071;55.130;61.268;2023-08-20T11:12:43;98651.38;;;32.42;23.09
80164;BME280;70071;55.130;61.268;2023-08-20T11:15:11;98641.19;;;32.55;23.00
80164;BME280;70071;55.130;61.268;2023-08-20T11:17:45;98641.84;;;32.73;23.27
80164;BME280;70071;55.130;61.268;2023-08-20T11:20:14;98628.56;;;32.75;23.33
80164;BME280;70071;55.130;61.268;2023-08-20T11:22:40;98647.94;;;32.91;23.60
80164;BME280;70071;55.130;61.268;2023-08-20T11:25:15;98635.94;;;32.96;23.77
80164;BME280;70071;55.130;61.268;2023-08-20T11:27:44;98644.28;;;32.99;24.45
80164;BME280;70071;55.130;61.268;2023-08-20T11:30:11;98643.25;;;32.91;23.66
80164;BME280;70071;55.130;61.268;2023-08-20T11:32:39;98629.94;;;32.81;24.64
80164;BME280;70071;55.130;61.268;2023-08-20T11:35:07;98643.13;;;32.75;22.89
80164;BME280;70071;55.130;61.268;2023-08-20T11:37:34;98621.88;;;32.64;23.95
80164;BME280;70071;55.130;61.268;2023-08-20T11:39:59;98611.56;;;32.61;24.56
80164;BME280;70071;55.130;61.268;2023-08-20T11:42:26;98635.50;;;32.60;24.29
80164;BME280;70071;55.130;61.268;2023-08-20T11:44:55;98615.66;;;32.42;24.43
80164;BME280;70071;55.130;61.268;2023-08-20T11:47:21;98610.72;;;32.35;23.30
80164;BME280;70071;55.130;61.268;2023-08-20T11:49:47;98608.53;;;32.29;24.07
80164;BME280;70071;55.130;61.268;2023-08-20T11:52:13;98607.47;;;32.21;24.12
80164;BME280;70071;55.130;61.268;2023-08-20T11:54:39;98607.81;;;32.19;23.99
80164;BME280;70071;55.130;61.268;2023-08-20T11:57:06;98619.31;;;32.13;23.63
80164;BME280;70071;55.130;61.268;2023-08-20T11:59:33;98581.72;;;31.92;24.26
80164;BME280;70071;55.130;61.268;2023-08-20T12:02:01;98609.84;;;32.10;24.56
80164;BME280;70071;55.130;61.268;2023-08-20T12:04:29;98613.41;;;32.02;24.84
80164;BME280;70071;55.130;61.268;2023-08-20T12:07:09;98611.00;;;32.00;24.49
80164;BME280;70071;55.130;61.268;2023-08-20T12:09:39;98595.78;;;31.91;25.12
80164;BME280;70071;55.130;61.268;2023-08-20T12:12:06;98597.69;;;31.90;25.04
80164;BME280;70071;55.130;61.268;2023-08-20T12:14:32;98564.25;;;31.76;25.69
80164;BME280;70071;55.130;61.268;2023-08-20T12:16:59;98574.63;;;31.70;25.65
80164;BME280;70071;55.130;61.268;2023-08-20T12:19:26;98574.97;;;31.68;26.09
80164;BME280;70071;55.130;61.268;2023-08-20T12:21:52;98587.50;;;31.78;26.15
80164;BME280;70071;55.130;61.268;2023-08-20T12:24:18;98587.56;;;31.69;25.72
80164;BME280;70071;55.130;61.268;2023-08-20T12:26:47;98563.41;;;31.63;25.76
80164;BME280;70071;55.130;61.268;2023-08-20T12:29:13;98565.66;;;31.61;25.93
80164;BME280;70071;55.130;61.268;2023-08-20T12:31:40;98579.03;;;31.62;25.90
80164;BME280;70071;55.130;61.268;2023-08-20T12:34:07;98571.50;;;31.59;26.83
80164;BME280;70071;55.130;61.268;2023-08-20T12:36:34;98565.13;;;31.46;25.58
80164;BME280;70071;55.130;61.268;2023-08-20T12:39:00;98554.19;;;31.38;26.14
80164;BME280;70071;55.130;61.268;2023-08-20T12:41:26;98558.22;;;31.40;26.52
80164;BME280;70071;55.130;61.268;2023-08-20T12:43:52;98538.53;;;31.17;27.48
80164;BME280;70071;55.130;61.268;2023-08-20T12:46:18;98547.56;;;31.17;27.81
80164;BME280;70071;55.130;61.268;2023-08-20T12:48:43;98531.06;;;31.05;27.63
80164;BME280;70071;55.130;61.268;2023-08-20T12:51:09;98552.91;;;31.14;27.50
80164;BME280;70071;55.130;61.268;2023-08-20T12:53:39;98537.53;;;31.00;27.34
80164;BME280;70071;55.130;61.268;2023-08-20T12:56:05;98532.84;;;30.92;27.41
80164;BME280;70071;55.130;61.268;2023-08-20T12:58:31;98526.75;;;30.87;27.16
80164;BME280;70071;55.130;61.268;2023-08-20T13:00:57;98548.50;;;30.92;28.39
80164;BME280;70071;55.130;61.268;2023-08-20T13:03:23;98535.50;;;30.80;27.76
80164;BME280;70071;55.130;61.268;2023-08-20T13:05:49;98534.41;;;30.72;27.70
80164;BME280;70071;55.130;61.268;2023-08-20T13:08:15;98525.09;;;30.64;28.82
80164;BME280;70071;55.130;61.268;2023-08-20T13:10:42;98534.41;;;30.72;29.73
80164;BME280;70071;55.130;61.268;2023-08-20T13:13:18;98523.03;;;30.61;29.07
80164;BME280;70071;55.130;61.268;2023-08-20T13:15:46;98504.09;;;30.47;29.30